Time;durP1;ratioP1;P1;durP2;ratioP2;P2;SDS_P1;SDS_P2;PMS_P1;PMS_P2;Temp;Humidity;BMP_temperature;BMP_pressure;BME280_temperature;BME280_humidity;BME280_pressure;Samples;Min_cycle;Max_cycle;Signal;HPM_P1;HPM_P2
2023/07/11 00:00:06;;;;;;;7.15;5.47;;;23.00;67.00;;;;;;4999141;28;20584;-63
2023/07/11 00:02:32;;;;;;;5.80;4.88;;;23.00;67.40;;;;;;4997766;28;20630;-64
2023/07/11 00:04:59;;;;;;;8.50;5.20;;;23.00;67.70;;;;;;4998762;28;20121;-63
2023/07/11 00:07:25;;;;;;;6.95;4.93;;;22.90;67.70;;;;;;5002555;28;20073;-63
2023/07/11 00:09:50;;;;;;;5.32;4.82;;;22.90;67.80;;;;;;4997858;28;20417;-63
2023/07/11 00:12:17;;;;;;;4.90;4.50;;;22.90;68.10;;;;;;4998839;28;20104;-63
2023/07/11 00:14:43;;;;;;;5.95;4.80;;;22.80;68.10;;;;;;4998415;28;20493;-62
2023/07/11 00:17:09;;;;;;;5.43;4.80;;;22.80;68.10;;;;;;4999961;28;20073;-63
2023/07/11 00:19:49;;;;;;;5.90;4.78;;;22.80;68.10;;;;;;4998338;28;20073;-63
2023/07/11 00:22:14;;;;;;;5.15;4.72;;;22.80;69.20;;;;;;5000811;28;20038;-63
2023/07/11 00:24:40;;;;;;;5.80;5.10;;;22.80;68.20;;;;;;5000725;28;20045;-63
2023/07/11 00:27:05;;;;;;;6.65;4.65;;;22.80;68.20;;;;;;5009021;28;20030;-63
2023/07/11 00:29:31;;;;;;;4.97;4.53;;;22.70;68.30;;;;;;5003746;28;20121;-63
2023/07/11 00:31:57;;;;;;;5.57;4.90;;;22.70;68.40;;;;;;5006361;28;20076;-63
2023/07/11 00:34:22;;;;;;;6.50;4.82;;;22.60;68.40;;;;;;5004726;28;20054;-64
2023/07/11 00:36:48;;;;;;;5.63;4.97;;;22.60;68.80;;;;;;5005842;28;20042;-63
2023/07/11 00:39:15;;;;;;;5.32;4.70;;;22.60;68.80;;;;;;5007236;28;20037;-63
2023/07/11 00:41:41;;;;;;;5.82;5.10;;;22.50;68.90;;;;;;5006743;28;20544;-63
2023/07/11 00:44:15;;;;;;;5.43;4.93;;;22.50;69.10;;;;;;5009274;28;20120;-63
2023/07/11 00:46:42;;;;;;;5.88;4.90;;;22.40;69.70;;;;;;5005683;28;20406;-62
2023/07/11 00:49:10;;;;;;;5.85;4.80;;;22.40;69.20;;;;;;5003509;28;20571;-63
2023/07/11 00:51:56;;;;;;;5.63;5.13;;;22.40;69.30;;;;;;5004352;28;20036;-62
2023/07/11 00:54:27;;;;;;;5.10;4.65;;;22.30;69.70;;;;;;5002841;28;20045;-63
2023/07/11 00:56:55;;;;;;;5.65;5.03;;;22.30;69.20;;;;;;5006103;28;20541;-63
2023/07/11 00:59:22;;;;;;;5.72;4.97;;;22.20;69.10;;;;;;5003354;28;20307;-63
2023/07/11 01:02:11;;;;;;;5.28;4.78;;;22.20;69.20;;;;;;5005804;28;20038;-63
2023/07/11 01:04:38;;;;;;;6.25;5.13;;;22.10;69.70;;;;;;5004466;28;20034;-63
2023/07/11 01:07:06;;;;;;;6.80;5.20;;;22.10;70.40;;;;;;5004574;28;20045;-64
2023/07/11 01:09:32;;;;;;;5.53;4.93;;;22.10;69.50;;;;;;5003770;28;20053;-63
2023/07/11 01:12:01;;;;;;;7.75;4.85;;;22.10;69.50;;;;;;5004311;28;20026;-63
2023/07/11 01:14:27;;;;;;;5.68;5.07;;;22.00;70.00;;;;;;5003703;28;20034;-62
2023/07/11 01:16:53;;;;;;;5.22;4.70;;;22.00;70.00;;;;;;5003780;28;20200;-63
2023/07/11 01:19:20;;;;;;;6.05;4.65;;;22.00;70.00;;;;;;5004010;28;20386;-62
2023/07/11 01:21:46;;;;;;;5.05;4.65;;;22.00;70.20;;;;;;5005238;28;22015;-63
2023/07/11 01:24:12;;;;;;;5.65;5.15;;;22.00;70.20;;;;;;5002553;28;20152;-64
2023/07/11 01:26:38;;;;;;;5.40;4.90;;;22.00;70.10;;;;;;5003585;28;20077;-63
2023/07/11 01:29:04;;;;;;;5.40;4.90;;;22.00;70.00;;;;;;5005081;28;20190;-63
2023/07/11 01:31:33;;;;;;;5.55;4.82;;;22.00;70.20;;;;;;5003329;28;20096;-63
2023/07/11 01:34:03;;;;;;;5.88;4.88;;;21.90;70.30;;;;;;5003911;28;20041;-64
2023/07/11 01:36:29;;;;;;;6.18;5.07;;;21.90;70.60;;;;;;5001973;28;20049;-63
2023/07/11 01:38:56;;;;;;;5.30;4.80;;;21.80;70.60;;;;;;5000071;28;20095;-63
2023/07/11 01:41:23;;;;;;;5.15;4.65;;;21.80;70.90;;;;;;5000066;28;20041;-63
2023/07/11 01:43:48;;;;;;;5.72;5.07;;;21.80;70.90;;;;;;5002430;28;20096;-63
2023/07/11 01:46:14;;;;;;;5.40;4.97;;;21.80;70.90;;;;;;5000437;28;20037;-63
2023/07/11 01:48:40;;;;;;;5.70;5.20;;;21.70;71.10;;;;;;5000353;28;20076;-63
2023/07/11 01:51:05;;;;;;;5.60;5.10;;;21.70;71.20;;;;;;5000412;28;20378;-63
2023/07/11 01:53:31;;;;;;;5.72;5.10;;;21.70;71.20;;;;;;5000276;28;20069;-63
2023/07/11 01:55:58;;;;;;;5.82;5.28;;;21.70;71.20;;;;;;5001189;28;20044;-64
2023/07/11 01:58:23;;;;;;;7.30;5.03;;;21.60;71.40;;;;;;5000936;28;20052;-63
2023/07/11 02:00:49;;;;;;;6.50;5.07;;;21.60;71.40;;;;;;5001762;28;20228;-63
2023/07/11 02:03:15;;;;;;;5.88;5.30;;;21.60;71.30;;;;;;5003260;28;20501;-62
2023/07/11 02:05:40;;;;;;;6.22;5.07;;;21.50;71.10;;;;;;5004714;28;20026;-63
2023/07/11 02:08:06;;;;;;;9.70;5.20;;;21.50;71.10;;;;;;5002214;28;20401;-63
2023/07/11 02:10:32;;;;;;;7.32;5.10;;;21.40;71.00;;;;;;5002552;28;20419;-62
2023/07/11 02:12:57;;;;;;;5.50;4.95;;;21.40;71.30;;;;;;4998002;28;20521;-63
2023/07/11 02:15:23;;;;;;;12.52;4.85;;;21.30;71.30;;;;;;5002163;28;20209;-63
2023/07/11 02:17:49;;;;;;;5.30;4.80;;;21.20;71.40;;;;;;5003511;28;20030;-63
2023/07/11 02:20:14;;;;;;;5.10;4.70;;;21.20;71.80;;;;;;5003296;28;20528;-63
2023/07/11 02:22:40;;;;;;;7.93;4.45;;;21.20;72.00;;;;;;5005008;28;20049;-63
2023/07/11 02:25:06;;;;;;;6.07;5.22;;;21.20;71.80;;;;;;5003045;28;20038;-63
2023/07/11 02:27:31;;;;;;;5.30;4.80;;;21.20;71.80;;;;;;5003410;28;20402;-63
2023/07/11 02:29:57;;;;;;;8.13;4.95;;;21.30;72.00;;;;;;5000018;28;20026;-62
2023/07/11 02:32:23;;;;;;;6.18;4.90;;;21.30;72.00;;;;;;5002014;28;20494;-63
2023/07/11 02:34:48;;;;;;;6.47;5.00;;;21.30;72.00;;;;;;5000635;28;20425;-63
2023/07/11 02:37:14;;;;;;;6.15;5.40;;;21.30;71.90;;;;;;5004798;28;20038;-62
2023/07/11 02:39:39;;;;;;;12.43;5.50;;;21.30;71.90;;;;;;5002969;28;20489;-62
2023/07/11 02:42:05;;;;;;;5.82;5.07;;;21.30;72.00;;;;;;5003909;28;20285;-63
2023/07/11 02:44:30;;;;;;;7.85;5.15;;;21.20;72.00;;;;;;5001544;28;20045;-64
2023/07/11 02:46:56;;;;;;;6.10;5.10;;;21.20;72.10;;;;;;5001586;28;20401;-63
2023/07/11 02:49:22;;;;;;;6.70;4.93;;;21.10;72.10;;;;;;5001126;28;20053;-63
2023/07/11 02:51:47;;;;;;;6.05;5.45;;;21.20;72.30;;;;;;5000566;28;20050;-64
2023/07/11 02:54:14;;;;;;;5.53;5.00;;;21.10;72.50;;;;;;4998775;28;20034;-64
2023/07/11 02:56:39;;;;;;;5.47;4.70;;;21.10;72.30;;;;;;4998793;28;20037;-65
2023/07/11 02:59:05;;;;;;;6.63;4.90;;;21.00;72.30;;;;;;5000116;28;20045;-65
2023/07/11 03:01:34;;;;;;;6.00;4.90;;;21.00;72.50;;;;;;5001284;28;20034;-65
2023/07/11 03:04:00;;;;;;;6.63;5.40;;;20.90;73.10;;;;;;4999320;28;20038;-64
2023/07/11 03:06:25;;;;;;;6.68;5.43;;;20.90;73.00;;;;;;4999366;28;20049;-64
2023/07/11 03:08:51;;;;;;;5.85;5.25;;;20.80;72.30;;;;;;4998307;28;20484;-64
2023/07/11 03:11:16;;;;;;;5.53;5.03;;;20.70;73.20;;;;;;5013673;28;20026;-64
2023/07/11 03:13:42;;;;;;;9.85;5.40;;;20.70;73.70;;;;;;4998669;28;20038;-65
2023/07/11 03:16:08;;;;;;;8.00;5.57;;;20.70;73.70;;;;;;4999205;28;20133;-63
2023/07/11 03:18:34;;;;;;;10.38;5.28;;;20.70;73.80;;;;;;5002155;28;20080;-64
2023/07/11 03:21:01;;;;;;;9.55;5.13;;;20.70;73.90;;;;;;5002533;28;20140;-62
2023/07/11 03:23:27;;;;;;;7.43;5.35;;;20.60;73.90;;;;;;5001186;28;20038;-65
2023/07/11 03:25:53;;;;;;;5.60;5.00;;;20.60;73.90;;;;;;5000044;28;20038;-64
2023/07/11 03:28:19;;;;;;;6.15;5.10;;;20.60;74.20;;;;;;4998442;28;20041;-64
2023/07/11 03:30:45;;;;;;;7.00;5.70;;;20.60;74.20;;;;;;4996042;28;20064;-64
2023/07/11 03:33:10;;;;;;;6.97;5.07;;;20.60;74.30;;;;;;5000163;28;20136;-63
2023/07/11 03:35:36;;;;;;;5.57;5.03;;;20.60;74.30;;;;;;5000539;28;20124;-63
2023/07/11 03:38:01;;;;;;;8.85;5.15;;;20.60;74.30;;;;;;4999524;28;20705;-64
2023/07/11 03:40:28;;;;;;;6.63;5.30;;;20.50;74.30;;;;;;4996197;28;20065;-64
2023/07/11 03:42:54;;;;;;;5.88;5.32;;;20.50;74.60;;;;;;4999175;28;20084;-64
2023/07/11 03:45:20;;;;;;;7.55;5.63;;;20.50;74.60;;;;;;4998915;28;20457;-64
2023/07/11 03:47:45;;;;;;;7.80;5.30;;;20.50;74.70;;;;;;4999800;28;20479;-64
2023/07/11 03:50:11;;;;;;;6.78;5.55;;;20.40;74.60;;;;;;4999266;28;20405;-64
2023/07/11 03:52:37;;;;;;;5.65;5.07;;;20.40;74.90;;;;;;4999062;28;20036;-64
2023/07/11 03:55:02;;;;;;;6.25;5.43;;;20.30;75.00;;;;;;5001819;28;20119;-65
2023/07/11 03:57:28;;;;;;;6.10;5.50;;;20.30;75.10;;;;;;4999325;28;20026;-64
2023/07/11 03:59:54;;;;;;;7.03;5.25;;;20.30;75.10;;;;;;4997169;28;20254;-64
2023/07/11 04:02:19;;;;;;;8.23;5.30;;;20.30;76.10;;;;;;4998513;28;20037;-64
2023/07/11 04:04:45;;;;;;;5.53;5.03;;;20.30;75.40;;;;;;4998696;28;20033;-65
2023/07/11 04:07:10;;;;;;;10.35;5.25;;;20.30;75.40;;;;;;4998644;28;20462;-64
2023/07/11 04:09:40;;;;;;;7.00;5.20;;;20.40;75.50;;;;;;4997976;28;20080;-64
2023/07/11 04:12:06;;;;;;;5.53;5.03;;;20.30;75.50;;;;;;4993404;28;20034;-64
2023/07/11 04:14:31;;;;;;;5.78;5.10;;;20.40;75.40;;;;;;4994470;28;20037;-65
2023/07/11 04:16:57;;;;;;;6.57;5.28;;;20.40;75.50;;;;;;5001348;28;20030;-65
2023/07/11 04:19:22;;;;;;;8.38;5.32;;;20.40;75.40;;;;;;5003375;28;20334;-64
2023/07/11 04:21:48;;;;;;;6.00;5.40;;;20.50;75.40;;;;;;5001651;28;20037;-64
2023/07/11 04:24:13;;;;;;;9.27;5.20;;;20.50;75.40;;;;;;5004224;28;20077;-65
2023/07/11 04:26:39;;;;;;;6.35;5.72;;;20.50;75.30;;;;;;5002627;28;20567;-64
2023/07/11 04:29:05;;;;;;;6.32;5.55;;;20.60;75.20;;;;;;5002380;28;20033;-64
2023/07/11 04:31:30;;;;;;;6.95;5.47;;;20.60;75.20;;;;;;5002144;28;20073;-64
2023/07/11 04:33:56;;;;;;;7.05;5.68;;;20.60;75.10;;;;;;5001963;28;20450;-65
2023/07/11 04:36:21;;;;;;;7.22;6.15;;;20.70;75.00;;;;;;5005163;28;20485;-63
2023/07/11 04:38:47;;;;;;;6.60;5.85;;;20.70;75.00;;;;;;5004731;28;20041;-64
2023/07/11 04:41:12;;;;;;;7.07;6.38;;;20.70;75.10;;;;;;5004750;28;20046;-64
2023/07/11 04:43:39;;;;;;;9.10;5.90;;;20.80;75.30;;;;;;5003360;28;20506;-65
2023/07/11 04:46:06;;;;;;;6.55;5.95;;;20.80;75.30;;;;;;5002965;28;20062;-64
2023/07/11 04:48:32;;;;;;;7.95;6.05;;;20.80;75.40;;;;;;5000508;28;20045;-64
2023/07/11 04:51:04;;;;;;;10.52;5.97;;;20.80;75.60;;;;;;5016723;28;20027;-64
2023/07/11 04:53:30;;;;;;;7.22;5.70;;;20.80;76.20;;;;;;5003968;28;20030;-64
2023/07/11 04:56:01;;;;;;;6.50;5.90;;;20.90;75.80;;;;;;5002616;28;20548;-64
2023/07/11 04:58:29;;;;;;;6.97;5.80;;;20.90;76.10;;;;;;5001393;28;20132;-64
2023/07/11 05:01:04;;;;;;;6.47;5.88;;;20.90;75.70;;;;;;5002069;28;20046;-64
2023/07/11 05:03:30;;;;;;;8.43;6.40;;;20.90;75.90;;;;;;5003011;28;20064;-65
2023/07/11 05:05:56;;;;;;;7.80;6.03;;;20.90;76.00;;;;;;5002496;28;20066;-64
2023/07/11 05:08:23;;;;;;;7.85;6.45;;;21.00;76.10;;;;;;5002835;28;20080;-65
2023/07/11 05:11:07;;;;;;;8.95;6.43;;;21.00;76.30;;;;;;4999476;28;20030;-64
2023/07/11 05:13:33;;;;;;;7.00;5.93;;;21.10;77.20;;;;;;5005390;28;20026;-65
2023/07/11 05:16:04;;;;;;;6.90;6.22;;;21.10;76.10;;;;;;5006177;28;20030;-64
2023/07/11 05:18:31;;;;;;;6.90;6.20;;;21.20;76.40;;;;;;5006471;28;20038;-65
2023/07/11 05:20:57;;;;;;;6.57;5.85;;;21.20;75.90;;;;;;5004542;28;20569;-64
2023/07/11 05:23:25;;;;;;;6.65;6.00;;;21.30;76.10;;;;;;5005775;28;20061;-64
2023/07/11 05:25:51;;;;;;;6.72;6.07;;;21.30;76.00;;;;;;5005836;28;20466;-64
2023/07/11 05:28:17;;;;;;;6.18;5.57;;;21.40;75.80;;;;;;5005833;28;20033;-63
2023/07/11 05:30:43;;;;;;;7.28;6.20;;;21.50;76.00;;;;;;5004106;28;20073;-64
2023/07/11 05:33:09;;;;;;;10.57;6.40;;;21.50;75.90;;;;;;5005434;28;20572;-64
2023/07/11 05:35:46;;;;;;;6.97;5.78;;;21.60;75.60;;;;;;5004377;28;20409;-64
2023/07/11 05:38:14;;;;;;;9.32;6.13;;;21.60;75.50;;;;;;5005659;28;20429;-64
2023/07/11 05:40:43;;;;;;;7.00;5.90;;;21.70;75.60;;;;;;5004154;28;20565;-64
2023/07/11 05:43:08;;;;;;;7.05;6.35;;;21.80;75.40;;;;;;5006562;28;20057;-64
2023/07/11 05:45:34;;;;;;;7.93;6.50;;;21.90;75.10;;;;;;5004860;28;20042;-64
2023/07/11 05:48:00;;;;;;;6.72;6.07;;;22.00;75.10;;;;;;5006372;28;20439;-64
2023/07/11 05:50:26;;;;;;;6.80;6.10;;;22.10;75.10;;;;;;5005505;28;20069;-64
2023/07/11 05:52:52;;;;;;;7.00;6.30;;;22.10;74.70;;;;;;5005286;28;20031;-64
2023/07/11 05:55:17;;;;;;;9.15;6.53;;;22.20;74.60;;;;;;5005665;28;20554;-64
2023/07/11 05:57:43;;;;;;;7.93;6.75;;;22.30;74.40;;;;;;5004614;28;20397;-65
2023/07/11 06:00:12;;;;;;;7.50;6.43;;;22.40;74.40;;;;;;5004280;28;20100;-65
2023/07/11 06:02:37;;;;;;;10.32;6.88;;;22.50;74.50;;;;;;5004404;28;20034;-64
2023/07/11 06:05:03;;;;;;;6.95;6.30;;;22.60;73.90;;;;;;5004615;28;20045;-64
2023/07/11 06:07:29;;;;;;;7.82;6.60;;;22.70;73.50;;;;;;5004361;28;20430;-65
2023/07/11 06:09:58;;;;;;;8.45;6.22;;;22.70;73.30;;;;;;5005165;28;20026;-62
2023/07/11 06:12:23;;;;;;;10.50;6.68;;;22.80;73.20;;;;;;5002104;28;20034;-65
2023/07/11 06:14:50;;;;;;;8.35;6.88;;;22.90;72.80;;;;;;5003149;28;20034;-64
2023/07/11 06:17:16;;;;;;;8.30;7.15;;;23.00;72.80;;;;;;5006165;28;20044;-65
2023/07/11 06:19:41;;;;;;;8.85;7.32;;;23.00;72.50;;;;;;5005918;28;20041;-64
2023/07/11 06:22:07;;;;;;;11.05;7.18;;;23.10;72.50;;;;;;5004257;28;20501;-64
2023/07/11 06:24:32;;;;;;;7.90;7.10;;;23.20;72.30;;;;;;5004486;28;20121;-65
2023/07/11 06:26:59;;;;;;;7.10;6.40;;;23.30;72.10;;;;;;5010438;28;20061;-64
2023/07/11 06:29:24;;;;;;;9.25;6.90;;;23.30;72.00;;;;;;5003878;28;20065;-65
2023/07/11 06:31:50;;;;;;;7.05;6.35;;;23.40;72.00;;;;;;5004922;28;20486;-64
2023/07/11 06:34:16;;;;;;;7.30;6.60;;;23.50;71.40;;;;;;5005087;28;20053;-64
2023/07/11 06:36:41;;;;;;;8.07;6.65;;;23.60;71.20;;;;;;5003884;28;20060;-64
2023/07/11 06:39:07;;;;;;;7.18;6.30;;;23.70;71.10;;;;;;5006076;28;20037;-65
2023/07/11 06:41:33;;;;;;;8.38;6.68;;;23.80;70.60;;;;;;5006532;28;20034;-64
2023/07/11 06:43:59;;;;;;;6.95;5.93;;;23.80;70.40;;;;;;5005804;28;20038;-64
2023/07/11 06:46:24;;;;;;;8.20;6.25;;;23.90;70.10;;;;;;5004700;28;20092;-64
2023/07/11 06:48:50;;;;;;;7.85;6.57;;;24.00;70.40;;;;;;5003077;28;20050;-63
2023/07/11 06:51:16;;;;;;;8.65;6.45;;;24.10;70.20;;;;;;5003937;28;20136;-65
2023/07/11 06:53:41;;;;;;;8.55;6.65;;;24.20;70.20;;;;;;5005273;28;20076;-64
2023/07/11 06:56:07;;;;;;;8.32;7.38;;;24.30;69.70;;;;;;5005466;28;20061;-64
2023/07/11 06:58:33;;;;;;;9.20;7.63;;;24.40;69.50;;;;;;5006042;28;20042;-66
2023/07/11 07:01:03;;;;;;;7.93;6.60;;;24.50;69.50;;;;;;5009261;28;20056;-65
2023/07/11 07:03:29;;;;;;;7.10;6.40;;;24.60;69.50;;;;;;5007804;28;20038;-64
2023/07/11 07:06:02;;;;;;;8.90;6.95;;;24.60;69.00;;;;;;5003256;28;20032;-64
2023/07/11 07:08:27;;;;;;;10.10;6.72;;;24.70;69.00;;;;;;5003396;28;20096;-64
2023/07/11 07:10:53;;;;;;;11.52;7.43;;;24.80;68.80;;;;;;5001208;28;20509;-65
2023/07/11 07:13:21;;;;;;;11.40;7.28;;;24.90;68.50;;;;;;5003787;28;20061;-64
2023/07/11 07:15:56;;;;;;;8.82;7.00;;;25.00;68.50;;;;;;5003330;28;20119;-63
2023/07/11 07:18:22;;;;;;;12.20;7.43;;;25.10;68.40;;;;;;5004874;28;20501;-64
2023/07/11 07:20:50;;;;;;;8.90;6.95;;;25.10;68.00;;;;;;5001725;28;20077;-66
2023/07/11 07:23:16;;;;;;;7.95;7.07;;;25.20;68.20;;;;;;5005953;28;20038;-64
2023/07/11 07:25:56;;;;;;;9.05;7.15;;;25.30;68.00;;;;;;5004207;28;20045;-65
2023/07/11 07:28:22;;;;;;;7.43;6.70;;;25.40;68.00;;;;;;5006403;28;20525;-65
2023/07/11 07:30:50;;;;;;;8.95;6.75;;;25.50;67.70;;;;;;5002364;28;20050;-64
2023/07/11 07:33:15;;;;;;;9.63;7.15;;;25.60;67.30;;;;;;5005687;28;20306;-64
2023/07/11 07:35:42;;;;;;;12.02;7.65;;;25.70;67.30;;;;;;5005944;28;20422;-65
2023/07/11 07:38:09;;;;;;;7.72;6.95;;;25.80;67.30;;;;;;5003928;28;20099;-64
2023/07/11 07:40:35;;;;;;;8.88;7.10;;;26.00;67.30;;;;;;5003235;28;20588;-65
2023/07/11 07:43:01;;;;;;;14.35;7.68;;;26.10;67.40;;;;;;5005631;28;20128;-64
2023/07/11 07:45:26;;;;;;;7.97;7.07;;;26.10;66.90;;;;;;5006119;28;20038;-64
2023/07/11 07:47:52;;;;;;;8.88;7.25;;;26.30;66.70;;;;;;5004919;28;20038;-65
2023/07/11 07:50:19;;;;;;;11.57;8.07;;;26.40;66.70;;;;;;5003568;28;20109;-64
2023/07/11 07:52:44;;;;;;;8.52;7.32;;;26.50;66.20;;;;;;5002534;28;20133;-65
2023/07/11 07:55:10;;;;;;;9.93;8.13;;;26.60;66.30;;;;;;5000292;28;20616;-64
2023/07/11 07:57:36;;;;;;;8.48;7.18;;;26.70;65.70;;;;;;5004398;28;20121;-65
2023/07/11 08:00:02;;;;;;;9.73;7.20;;;26.80;65.70;;;;;;5003096;28;20034;-64
2023/07/11 08:02:31;;;;;;;9.93;7.88;;;27.00;65.70;;;;;;5002383;28;20026;-65
2023/07/11 08:04:57;;;;;;;8.77;7.72;;;27.10;65.50;;;;;;5005649;28;20026;-64
2023/07/11 08:07:24;;;;;;;10.50;6.75;;;27.20;64.50;;;;;;5004930;28;20037;-64
2023/07/11 08:09:49;;;;;;;11.00;7.13;;;27.30;64.70;;;;;;5002144;28;20052;-66
2023/07/11 08:12:15;;;;;;;10.57;7.20;;;27.40;64.30;;;;;;5001416;28;20054;-65
2023/07/11 08:14:41;;;;;;;13.45;6.90;;;27.60;64.70;;;;;;5002913;28;20413;-62
2023/07/11 08:17:08;;;;;;;9.00;6.90;;;27.70;64.20;;;;;;5003381;28;20037;-65
2023/07/11 08:19:34;;;;;;;15.43;7.38;;;27.90;63.50;;;;;;5004308;28;20045;-65
2023/07/11 08:22:00;;;;;;;9.60;6.80;;;28.00;62.90;;;;;;5002826;28;20046;-65
2023/07/11 08:24:26;;;;;;;7.68;6.50;;;28.10;62.90;;;;;;5003991;28;20064;-65
2023/07/11 08:26:51;;;;;;;10.68;6.88;;;28.20;62.40;;;;;;5002694;28;20041;-65
2023/07/11 08:29:18;;;;;;;7.78;6.43;;;28.30;62.30;;;;;;5001857;28;20441;-66
2023/07/11 08:31:44;;;;;;;10.35;6.65;;;28.40;61.90;;;;;;5004385;28;20076;-65
2023/07/11 08:34:09;;;;;;;7.07;5.78;;;28.50;61.50;;;;;;5004479;28;20034;-65
2023/07/11 08:36:38;;;;;;;9.35;5.70;;;28.60;61.40;;;;;;5003432;28;20389;-63
2023/07/11 08:39:03;;;;;;;8.40;5.80;;;28.70;59.80;;;;;;5003986;28;20034;-65
2023/07/11 08:41:41;;;;;;;9.10;5.68;;;28.80;60.50;;;;;;5005059;28;20438;-66
2023/07/11 08:44:14;;;;;;;11.45;5.70;;;29.00;59.10;;;;;;5004088;28;20030;-66
2023/07/11 08:46:50;;;;;;;9.63;5.80;;;29.10;59.50;;;;;;5003713;28;20038;-65
2023/07/11 08:49:28;;;;;;;10.40;5.57;;;29.30;59.00;;;;;;5007038;28;20134;-66
2023/07/11 08:51:58;;;;;;;8.80;5.22;;;29.40;58.70;;;;;;5006042;28;20401;-65
2023/07/11 08:54:40;;;;;;;9.90;5.57;;;29.50;58.80;;;;;;5008977;28;20133;-65
2023/07/11 08:57:09;;;;;;;12.40;5.40;;;29.70;58.90;;;;;;5006450;28;20037;-65
2023/07/11 08:59:43;;;;;;;9.23;5.20;;;29.80;58.70;;;;;;5006197;28;20038;-65
2023/07/11 09:02:09;;;;;;;9.00;5.07;;;29.90;57.80;;;;;;5008057;28;20041;-65
2023/07/11 09:04:37;;;;;;;7.25;4.50;;;30.10;58.20;;;;;;5005873;28;20049;-65
2023/07/11 09:07:16;;;;;;;9.10;4.88;;;30.20;57.40;;;;;;5007277;28;20563;-65
2023/07/11 09:09:42;;;;;;;7.65;5.30;;;30.40;56.80;;;;;;5005309;28;20038;-66
2023/07/11 09:12:17;;;;;;;5.57;4.40;;;30.50;56.40;;;;;;5005501;28;20033;-65
2023/07/11 09:15:22;;;;;;;5.53;4.63;;;30.60;56.50;;;;;;5003180;28;20045;-64
2023/07/11 09:17:56;;;;;;;7.03;4.70;;;30.70;55.50;;;;;;5006806;28;20515;-64
2023/07/11 09:20:41;;;;;;;5.13;4.50;;;30.90;55.10;;;;;;5006262;28;20034;-66
2023/07/11 09:23:13;;;;;;;16.35;4.45;;;31.00;55.00;;;;;;5007066;28;20128;-65
2023/07/11 09:25:42;;;;;;;8.02;4.28;;;31.10;55.30;;;;;;5007038;28;20461;-65
2023/07/11 09:28:23;;;;;;;6.95;4.55;;;31.20;54.60;;;;;;5006816;28;20045;-64
2023/07/11 09:31:05;;;;;;;6.68;4.72;;;31.30;53.00;;;;;;5006486;28;20038;-65
2023/07/11 09:33:34;;;;;;;4.95;4.25;;;31.40;53.90;;;;;;5007766;28;20069;-64
2023/07/11 09:36:02;;;;;;;4.85;4.10;;;31.50;54.00;;;;;;5006429;28;20045;-64
2023/07/11 09:38:49;;;;;;;5.70;4.00;;;31.60;53.20;;;;;;5005952;28;20069;-65
2023/07/11 09:41:21;;;;;;;5.53;3.88;;;31.70;51.90;;;;;;5005079;28;20042;-65
2023/07/11 09:43:47;;;;;;;4.13;3.60;;;31.80;51.00;;;;;;5006456;28;20675;-64
2023/07/11 09:46:15;;;;;;;5.05;4.10;;;31.80;50.90;;;;;;5005152;28;20041;-65
2023/07/11 09:48:44;;;;;;;5.38;3.70;;;32.00;50.50;;;;;;5006495;28;20448;-65
2023/07/11 09:51:41;;;;;;;6.78;3.92;;;32.00;50.50;;;;;;5005709;28;20037;-64
2023/07/11 09:54:21;;;;;;;5.95;3.80;;;32.20;48.90;;;;;;5003124;28;20072;-65
2023/07/11 09:56:48;;;;;;;4.40;3.83;;;32.20;49.70;;;;;;5005630;28;20498;-64
2023/07/11 09:59:16;;;;;;;5.47;3.42;;;32.30;50.60;;;;;;5005867;28;20038;-63
2023/07/11 10:01:41;;;;;;;4.53;4.00;;;32.40;50.10;;;;;;5006068;28;20026;-65
2023/07/11 10:04:17;;;;;;;4.18;3.78;;;32.50;49.70;;;;;;5006659;28;20041;-64
2023/07/11 10:06:53;;;;;;;6.65;3.92;;;32.50;47.60;;;;;;5005236;28;20084;-64
2023/07/11 10:09:29;;;;;;;7.72;3.78;;;32.60;48.30;;;;;;5005147;28;20041;-66
2023/07/11 10:12:01;;;;;;;5.10;3.78;;;32.70;47.50;;;;;;5002737;28;20045;-64
2023/07/11 10:14:38;;;;;;;8.65;4.00;;;32.80;47.20;;;;;;5004214;28;20038;-64
2023/07/11 10:17:27;;;;;;;4.35;3.80;;;32.80;47.40;;;;;;5006105;28;20056;-65
2023/07/11 10:19:58;;;;;;;3.75;3.42;;;32.80;47.80;;;;;;5005358;28;20498;-64
2023/07/11 10:22:27;;;;;;;4.30;3.75;;;32.90;47.90;;;;;;5006345;28;20526;-65
2023/07/11 10:25:02;;;;;;;7.68;3.95;;;32.90;47.80;;;;;;5004556;28;20045;-64
2023/07/11 10:27:35;;;;;;;4.40;3.65;;;33.00;47.90;;;;;;5005005;28;20080;-65
2023/07/11 10:30:03;;;;;;;4.78;4.22;;;33.10;48.50;;;;;;5004677;28;20425;-66
2023/07/11 10:32:43;;;;;;;7.28;4.05;;;33.20;48.20;;;;;;5005366;28;20042;-66
2023/07/11 10:35:20;;;;;;;6.55;4.20;;;33.20;47.20;;;;;;5006021;28;20049;-65
2023/07/11 10:37:54;;;;;;;6.50;4.10;;;33.30;47.40;;;;;;5007923;28;20330;-65
2023/07/11 10:40:27;;;;;;;;;;;33.40;47.80;;;;;;5007484;28;20536;-66
2023/07/11 10:43:17;;;;;;;5.20;3.85;;;33.40;48.20;;;;;;5006853;28;20443;-66
2023/07/11 10:45:45;;;;;;;4.32;3.88;;;33.50;47.30;;;;;;5004304;28;20030;-64
2023/07/11 10:48:14;;;;;;;4.28;3.75;;;33.50;48.00;;;;;;5004613;28;20410;-65
2023/07/11 10:50:46;;;;;;;4.20;3.75;;;33.60;48.00;;;;;;5004712;28;20030;-65
2023/07/11 10:53:42;;;;;;;5.07;3.67;;;33.60;47.60;;;;;;5006474;28;20101;-66
2023/07/11 10:56:23;;;;;;;6.10;4.43;;;33.70;47.60;;;;;;5005608;28;20030;-64
2023/07/11 10:58:49;;;;;;;6.55;3.78;;;33.80;47.00;;;;;;5002000;28;20054;-65
2023/07/11 11:01:18;;;;;;;7.80;4.15;;;33.80;47.00;;;;;;5005117;28;20033;-64
2023/07/11 11:03:48;;;;;;;5.78;4.15;;;33.80;46.70;;;;;;5005240;28;20034;-66
2023/07/11 11:06:22;;;;;;;4.15;3.72;;;33.80;47.40;;;;;;5006142;28;20230;-65
2023/07/11 11:09:00;;;;;;;6.22;3.75;;;33.80;47.40;;;;;;5004348;28;20104;-65
2023/07/11 11:11:44;;;;;;;5.53;4.07;;;33.90;47.60;;;;;;5002027;28;20113;-64
2023/07/11 11:14:17;;;;;;;5.00;3.75;;;33.90;47.10;;;;;;5004629;28;20038;-65
2023/07/11 11:17:05;;;;;;;5.03;3.90;;;33.90;47.10;;;;;;5003567;28;20412;-65
2023/07/11 11:19:41;;;;;;;5.70;4.20;;;33.90;46.40;;;;;;5002504;28;20526;-65
2023/07/11 11:22:20;;;;;;;5.85;4.22;;;33.90;46.60;;;;;;5004741;28;20572;-65
2023/07/11 11:25:00;;;;;;;7.75;4.18;;;33.90;46.80;;;;;;5003674;28;20124;-65
2023/07/11 11:27:41;;;;;;;4.97;4.13;;;33.90;47.00;;;;;;5005452;28;20448;-66
2023/07/11 11:30:34;;;;;;;7.95;3.95;;;34.00;46.70;;;;;;5004737;28;20141;-63
2023/07/11 11:33:20;;;;;;;5.50;4.00;;;34.10;47.20;;;;;;5004767;28;20036;-65
2023/07/11 11:35:57;;;;;;;4.20;3.67;;;34.20;45.70;;;;;;5004435;28;20026;-66
2023/07/11 11:38:32;;;;;;;4.00;3.63;;;34.30;45.50;;;;;;5004919;28;20164;-64
2023/07/11 11:40:59;;;;;;;;;;;34.30;46.20;;;;;;5004028;28;20037;-65
2023/07/11 11:43:26;;;;;;;4.28;3.70;;;34.50;47.40;;;;;;5002734;28;19924;-64
2023/07/11 11:45:53;;;;;;;4.47;3.80;;;34.50;46.90;;;;;;5002828;28;20038;-65
2023/07/11 11:48:22;;;;;;;5.60;3.55;;;34.50;46.00;;;;;;5004609;28;20065;-64
2023/07/11 11:50:49;;;;;;;6.82;4.07;;;34.60;45.80;;;;;;5004280;28;20513;-63
2023/07/11 11:53:22;;;;;;;5.28;4.13;;;34.60;45.50;;;;;;5004422;28;20510;-64
2023/07/11 11:56:15;;;;;;;4.53;3.70;;;34.60;45.20;;;;;;5004864;28;20037;-64
2023/07/11 11:58:56;;;;;;;3.95;3.55;;;34.70;45.60;;;;;;5002107;28;20513;-65
2023/07/11 12:01:41;;;;;;;6.25;4.13;;;34.70;45.40;;;;;;5004136;28;20057;-64
2023/07/11 12:04:53;;;;;;;6.80;3.78;;;34.70;44.90;;;;;;5003428;28;20044;-65
2023/07/11 12:07:26;;;;;;;6.95;3.90;;;34.70;45.40;;;;;;4942966;28;20040;-66
2023/07/11 12:09:51;;;;;;;4.30;3.90;;;34.80;44.90;;;;;;4941313;28;20071;-65
2023/07/11 12:12:42;;;;;;;9.25;3.70;;;34.80;44.70;;;;;;4973944;28;20454;-64
2023/07/11 12:15:10;;;;;;;4.85;3.50;;;34.80;43.10;;;;;;5002340;28;20129;-65
2023/07/11 12:17:38;;;;;;;3.97;3.35;;;34.90;43.20;;;;;;5003486;28;20534;-64
2023/07/11 12:20:09;;;;;;;6.93;3.72;;;34.90;42.90;;;;;;5002200;28;20414;-64
2023/07/11 12:22:37;;;;;;;7.82;3.50;;;34.90;41.90;;;;;;5003116;28;20124;-65
2023/07/11 12:25:05;;;;;;;4.85;3.80;;;34.90;42.00;;;;;;5003357;28;20080;-65
2023/07/11 12:27:31;;;;;;;7.05;3.90;;;34.90;42.30;;;;;;5003249;28;20038;-65
2023/07/11 12:30:00;;;;;;;6.13;3.40;;;35.00;42.30;;;;;;5003213;28;20045;-65
2023/07/11 12:32:38;;;;;;;5.90;3.67;;;35.10;41.50;;;;;;5003932;28;20103;-65
2023/07/11 12:35:10;;;;;;;4.10;3.38;;;35.10;40.80;;;;;;5002084;28;20052;-64
2023/07/11 12:38:00;;;;;;;7.28;3.50;;;35.10;41.40;;;;;;5006429;28;20100;-64
2023/07/11 12:40:45;;;;;;;6.25;3.45;;;35.20;40.40;;;;;;5005944;28;20033;-65
2023/07/11 12:43:19;;;;;;;;;;;35.20;40.60;;;;;;5005326;28;20034;-63
2023/07/11 12:45:50;;;;;;;4.65;3.03;;;35.30;38.30;;;;;;5002466;28;19964;-65
2023/07/11 12:48:34;;;;;;;9.88;3.13;;;35.30;39.40;;;;;;5004551;28;20109;-64
2023/07/11 12:51:05;;;;;;;3.90;3.13;;;35.40;38.50;;;;;;5002655;28;20091;-64
2023/07/11 12:53:34;;;;;;;4.53;2.90;;;35.40;39.00;;;;;;5004413;28;20517;-65
2023/07/11 12:56:00;;;;;;;5.00;3.20;;;35.40;39.10;;;;;;5003680;28;20040;-65